Terminal Aerodrome Forecast
Issued by NWS

Home | Current Version | Previous Version | Text Only | Print | Product List | Glossary On
Versions: 1 2 3 4 5 6 7 8 9 10 11 12 13 14 15 16 17 18 19 20 21 22 23 24 25 26 27 28 29 30 31
308
FTUS41 KOKX 091930 AAA
TAFHPN
TAF AMD
KHPN 091930Z 0920/1018 31018G30KT P6SM BKN050
     FM092300 30012G21KT P6SM SCT040
     FM100400 28010KT P6SM FEW040 SCT150
     FM101500 29010G18KT P6SM BKN040 BKN150
      AMD NOT SKED=

USA.gov is the U.S. government's official web portal to all federal, state and local government web resources and services.